sensor_id;sensor_type;location;lat;lon;timestamp;P1;durP1;ratioP1;P2;durP2;ratioP2
422;SDS011;198;48.752;9.180;2023-04-06T00:00:38;10.27;;;5.10;;
422;SDS011;198;48.752;9.180;2023-04-06T00:03:04;14.50;;;5.57;;
422;SDS011;198;48.752;9.180;2023-04-06T00:05:30;13.40;;;5.80;;
422;SDS011;198;48.752;9.180;2023-04-06T00:07:56;10.57;;;5.73;;
422;SDS011;198;48.752;9.180;2023-04-06T00:10:22;10.97;;;5.50;;
422;SDS011;198;48.752;9.180;2023-04-06T00:12:48;11.23;;;6.30;;
422;SDS011;198;48.752;9.180;2023-04-06T00:15:13;10.60;;;5.50;;
422;SDS011;198;48.752;9.180;2023-04-06T00:17:39;18.10;;;6.10;;
422;SDS011;198;48.752;9.180;2023-04-06T00:20:05;13.20;;;6.27;;
422;SDS011;198;48.752;9.180;2023-04-06T00:22:31;11.73;;;6.50;;
422;SDS011;198;48.752;9.180;2023-04-06T00:24:57;10.67;;;5.57;;
422;SDS011;198;48.752;9.180;2023-04-06T00:27:23;14.83;;;7.20;;
422;SDS011;198;48.752;9.180;2023-04-06T00:29:48;13.30;;;6.37;;
422;SDS011;198;48.752;9.180;2023-04-06T00:32:14;15.70;;;6.60;;
422;SDS011;198;48.752;9.180;2023-04-06T00:34:39;14.17;;;6.40;;
422;SDS011;198;48.752;9.180;2023-04-06T00:37:05;10.50;;;5.93;;
422;SDS011;198;48.752;9.180;2023-04-06T00:39:30;12.57;;;5.60;;
422;SDS011;198;48.752;9.180;2023-04-06T00:41:56;11.77;;;6.30;;
422;SDS011;198;48.752;9.180;2023-04-06T00:44:22;21.40;;;7.73;;
422;SDS011;198;48.752;9.180;2023-04-06T00:46:47;12.50;;;6.50;;
422;SDS011;198;48.752;9.180;2023-04-06T00:49:13;9.93;;;6.10;;
422;SDS011;198;48.752;9.180;2023-04-06T00:51:39;14.23;;;5.90;;
422;SDS011;198;48.752;9.180;2023-04-06T00:54:04;9.10;;;5.07;;
422;SDS011;198;48.752;9.180;2023-04-06T00:56:30;13.23;;;6.47;;
422;SDS011;198;48.752;9.180;2023-04-06T00:58:56;10.47;;;5.83;;
422;SDS011;198;48.752;9.180;2023-04-06T01:01:22;12.20;;;6.73;;
422;SDS011;198;48.752;9.180;2023-04-06T01:03:48;16.17;;;6.33;;
422;SDS011;198;48.752;9.180;2023-04-06T01:06:15;11.43;;;7.07;;
422;SDS011;198;48.752;9.180;2023-04-06T01:08:41;13.20;;;5.93;;
422;SDS011;198;48.752;9.180;2023-04-06T01:11:06;15.77;;;6.27;;
422;SDS011;198;48.752;9.180;2023-04-06T01:13:32;12.70;;;5.90;;
422;SDS011;198;48.752;9.180;2023-04-06T01:15:57;11.60;;;5.60;;
422;SDS011;198;48.752;9.180;2023-04-06T01:18:27;17.00;;;6.07;;
422;SDS011;198;48.752;9.180;2023-04-06T01:20:53;14.77;;;6.20;;
422;SDS011;198;48.752;9.180;2023-04-06T01:23:18;11.70;;;5.30;;
422;SDS011;198;48.752;9.180;2023-04-06T01:25:44;12.77;;;5.93;;
422;SDS011;198;48.752;9.180;2023-04-06T01:28:10;12.30;;;6.30;;
422;SDS011;198;48.752;9.180;2023-04-06T01:30:35;11.17;;;5.83;;
422;SDS011;198;48.752;9.180;2023-04-06T01:33:01;18.57;;;5.77;;
422;SDS011;198;48.752;9.180;2023-04-06T01:35:27;13.70;;;7.00;;
422;SDS011;198;48.752;9.180;2023-04-06T01:37:53;21.00;;;5.40;;
422;SDS011;198;48.752;9.180;2023-04-06T01:40:21;10.43;;;5.23;;
422;SDS011;198;48.752;9.180;2023-04-06T01:42:47;12.53;;;5.60;;
422;SDS011;198;48.752;9.180;2023-04-06T01:45:13;11.67;;;7.20;;
422;SDS011;198;48.752;9.180;2023-04-06T01:47:38;11.73;;;5.23;;
422;SDS011;198;48.752;9.180;2023-04-06T01:50:06;8.80;;;4.93;;
422;SDS011;198;48.752;9.180;2023-04-06T01:52:33;11.03;;;5.40;;
422;SDS011;198;48.752;9.180;2023-04-06T01:54:58;11.37;;;5.40;;
422;SDS011;198;48.752;9.180;2023-04-06T01:57:24;11.57;;;5.80;;
422;SDS011;198;48.752;9.180;2023-04-06T01:59:50;15.27;;;6.80;;
422;SDS011;198;48.752;9.180;2023-04-06T02:02:16;17.77;;;7.03;;
422;SDS011;198;48.752;9.180;2023-04-06T02:04:48;9.80;;;5.60;;
422;SDS011;198;48.752;9.180;2023-04-06T02:07:14;10.13;;;5.30;;
422;SDS011;198;48.752;9.180;2023-04-06T02:09:40;12.67;;;5.90;;
422;SDS011;198;48.752;9.180;2023-04-06T02:12:05;10.40;;;5.30;;
422;SDS011;198;48.752;9.180;2023-04-06T02:14:31;11.40;;;5.90;;
422;SDS011;198;48.752;9.180;2023-04-06T02:16:57;11.60;;;5.83;;
422;SDS011;198;48.752;9.180;2023-04-06T02:19:23;11.63;;;6.17;;
422;SDS011;198;48.752;9.180;2023-04-06T02:21:49;14.30;;;6.40;;
422;SDS011;198;48.752;9.180;2023-04-06T02:24:14;11.07;;;5.40;;
422;SDS011;198;48.752;9.180;2023-04-06T02:26:40;17.30;;;6.23;;
422;SDS011;198;48.752;9.180;2023-04-06T02:29:05;12.03;;;6.07;;
422;SDS011;198;48.752;9.180;2023-04-06T02:31:32;10.97;;;5.80;;
422;SDS011;198;48.752;9.180;2023-04-06T02:33:57;11.83;;;5.80;;
422;SDS011;198;48.752;9.180;2023-04-06T02:36:22;13.40;;;6.73;;
422;SDS011;198;48.752;9.180;2023-04-06T02:38:48;12.83;;;5.67;;
422;SDS011;198;48.752;9.180;2023-04-06T02:41:13;10.33;;;5.30;;
422;SDS011;198;48.752;9.180;2023-04-06T02:43:39;15.27;;;5.90;;
422;SDS011;198;48.752;9.180;2023-04-06T02:46:05;13.40;;;5.77;;
422;SDS011;198;48.752;9.180;2023-04-06T02:48:30;16.70;;;5.93;;
422;SDS011;198;48.752;9.180;2023-04-06T02:50:55;14.03;;;6.87;;
422;SDS011;198;48.752;9.180;2023-04-06T02:53:21;9.93;;;5.93;;
422;SDS011;198;48.752;9.180;2023-04-06T02:55:46;12.23;;;5.93;;
422;SDS011;198;48.752;9.180;2023-04-06T02:58:12;10.77;;;5.80;;
422;SDS011;198;48.752;9.180;2023-04-06T03:00:37;14.30;;;5.40;;
422;SDS011;198;48.752;9.180;2023-04-06T03:03:03;15.43;;;6.67;;
422;SDS011;198;48.752;9.180;2023-04-06T03:05:28;12.67;;;6.00;;
422;SDS011;198;48.752;9.180;2023-04-06T03:07:54;30.30;;;8.47;;
422;SDS011;198;48.752;9.180;2023-04-06T03:10:20;11.50;;;5.90;;
422;SDS011;198;48.752;9.180;2023-04-06T03:12:45;12.97;;;6.57;;
422;SDS011;198;48.752;9.180;2023-04-06T03:15:11;18.60;;;6.40;;
422;SDS011;198;48.752;9.180;2023-04-06T03:17:36;13.90;;;6.13;;
422;SDS011;198;48.752;9.180;2023-04-06T03:20:02;10.47;;;6.17;;
422;SDS011;198;48.752;9.180;2023-04-06T03:22:28;11.43;;;6.70;;
422;SDS011;198;48.752;9.180;2023-04-06T03:24:54;8.80;;;5.10;;
422;SDS011;198;48.752;9.180;2023-04-06T03:27:19;13.53;;;5.77;;
422;SDS011;198;48.752;9.180;2023-04-06T03:29:45;12.50;;;5.80;;
422;SDS011;198;48.752;9.180;2023-04-06T03:32:10;9.77;;;5.63;;
422;SDS011;198;48.752;9.180;2023-04-06T03:34:36;14.33;;;5.97;;
422;SDS011;198;48.752;9.180;2023-04-06T03:37:02;11.20;;;5.43;;
422;SDS011;198;48.752;9.180;2023-04-06T03:39:28;18.03;;;6.60;;
422;SDS011;198;48.752;9.180;2023-04-06T03:41:53;9.97;;;5.17;;
422;SDS011;198;48.752;9.180;2023-04-06T03:44:19;12.20;;;5.70;;
422;SDS011;198;48.752;9.180;2023-04-06T03:46:44;16.97;;;7.17;;
422;SDS011;198;48.752;9.180;2023-04-06T03:49:10;11.23;;;5.73;;
422;SDS011;198;48.752;9.180;2023-04-06T03:51:35;10.70;;;5.30;;
422;SDS011;198;48.752;9.180;2023-04-06T03:54:01;17.10;;;6.63;;
422;SDS011;198;48.752;9.180;2023-04-06T03:56:26;12.40;;;5.43;;
422;SDS011;198;48.752;9.180;2023-04-06T03:58:52;13.10;;;5.77;;
422;SDS011;198;48.752;9.180;2023-04-06T04:01:17;17.13;;;6.60;;
422;SDS011;198;48.752;9.180;2023-04-06T04:03:43;16.10;;;5.97;;
422;SDS011;198;48.752;9.180;2023-04-06T04:06:09;16.10;;;7.40;;
422;SDS011;198;48.752;9.180;2023-04-06T04:08:34;17.67;;;7.07;;
422;SDS011;198;48.752;9.180;2023-04-06T04:11:00;14.50;;;5.73;;
422;SDS011;198;48.752;9.180;2023-04-06T04:13:26;14.97;;;7.73;;
422;SDS011;198;48.752;9.180;2023-04-06T04:15:52;14.13;;;6.63;;
422;SDS011;198;48.752;9.180;2023-04-06T04:18:17;15.00;;;6.47;;
422;SDS011;198;48.752;9.180;2023-04-06T04:20:43;15.27;;;7.30;;
422;SDS011;198;48.752;9.180;2023-04-06T04:23:09;14.73;;;7.40;;
422;SDS011;198;48.752;9.180;2023-04-06T04:25:35;18.87;;;6.27;;
422;SDS011;198;48.752;9.180;2023-04-06T04:28:00;9.87;;;6.07;;
422;SDS011;198;48.752;9.180;2023-04-06T04:30:26;19.50;;;7.00;;
422;SDS011;198;48.752;9.180;2023-04-06T04:32:52;12.20;;;5.80;;
422;SDS011;198;48.752;9.180;2023-04-06T04:35:17;11.93;;;6.80;;
422;SDS011;198;48.752;9.180;2023-04-06T04:37:43;16.93;;;7.80;;
422;SDS011;198;48.752;9.180;2023-04-06T04:40:08;18.17;;;7.40;;
422;SDS011;198;48.752;9.180;2023-04-06T04:42:34;10.33;;;5.70;;
422;SDS011;198;48.752;9.180;2023-04-06T04:45:00;12.87;;;7.23;;
422;SDS011;198;48.752;9.180;2023-04-06T04:47:26;12.53;;;6.30;;
422;SDS011;198;48.752;9.180;2023-04-06T04:49:51;17.20;;;7.17;;
422;SDS011;198;48.752;9.180;2023-04-06T04:52:16;11.50;;;7.10;;
422;SDS011;198;48.752;9.180;2023-04-06T04:54:42;15.43;;;7.40;;
422;SDS011;198;48.752;9.180;2023-04-06T04:57:08;14.27;;;7.10;;
422;SDS011;198;48.752;9.180;2023-04-06T04:59:34;18.73;;;6.80;;
422;SDS011;198;48.752;9.180;2023-04-06T05:01:59;16.70;;;7.33;;
422;SDS011;198;48.752;9.180;2023-04-06T05:04:25;14.70;;;6.90;;
422;SDS011;198;48.752;9.180;2023-04-06T05:06:51;13.50;;;5.90;;
422;SDS011;198;48.752;9.180;2023-04-06T05:09:30;14.57;;;6.73;;
422;SDS011;198;48.752;9.180;2023-04-06T05:11:56;8.27;;;6.70;;
422;SDS011;198;48.752;9.180;2023-04-06T05:14:23;14.57;;;6.40;;
422;SDS011;198;48.752;9.180;2023-04-06T05:16:48;13.93;;;6.17;;
422;SDS011;198;48.752;9.180;2023-04-06T05:19:14;17.83;;;6.87;;
422;SDS011;198;48.752;9.180;2023-04-06T05:21:39;15.93;;;6.23;;
422;SDS011;198;48.752;9.180;2023-04-06T05:24:05;13.67;;;7.37;;
422;SDS011;198;48.752;9.180;2023-04-06T05:26:31;11.87;;;5.73;;
422;SDS011;198;48.752;9.180;2023-04-06T05:28:56;12.57;;;6.63;;
422;SDS011;198;48.752;9.180;2023-04-06T05:31:22;22.40;;;6.80;;
422;SDS011;198;48.752;9.180;2023-04-06T05:33:47;14.00;;;6.60;;
422;SDS011;198;48.752;9.180;2023-04-06T05:36:13;12.77;;;6.80;;
422;SDS011;198;48.752;9.180;2023-04-06T05:38:38;16.37;;;6.43;;
422;SDS011;198;48.752;9.180;2023-04-06T05:41:04;11.73;;;5.90;;
422;SDS011;198;48.752;9.180;2023-04-06T05:43:30;9.77;;;5.70;;
422;SDS011;198;48.752;9.180;2023-04-06T05:45:55;11.87;;;7.27;;
422;SDS011;198;48.752;9.180;2023-04-06T05:48:21;15.77;;;6.43;;
422;SDS011;198;48.752;9.180;2023-04-06T05:50:48;22.03;;;6.77;;
422;SDS011;198;48.752;9.180;2023-04-06T05:53:15;17.70;;;7.00;;
422;SDS011;198;48.752;9.180;2023-04-06T05:55:40;19.53;;;7.53;;
422;SDS011;198;48.752;9.180;2023-04-06T05:58:06;15.47;;;6.60;;
422;SDS011;198;48.752;9.180;2023-04-06T06:00:31;18.13;;;6.17;;
422;SDS011;198;48.752;9.180;2023-04-06T06:02:57;14.53;;;7.37;;
422;SDS011;198;48.752;9.180;2023-04-06T06:05:23;13.80;;;5.47;;
422;SDS011;198;48.752;9.180;2023-04-06T06:07:48;12.10;;;7.07;;
422;SDS011;198;48.752;9.180;2023-04-06T06:10:14;11.10;;;5.40;;
422;SDS011;198;48.752;9.180;2023-04-06T06:12:40;14.23;;;6.60;;
422;SDS011;198;48.752;9.180;2023-04-06T06:15:05;13.03;;;6.40;;
422;SDS011;198;48.752;9.180;2023-04-06T06:17:31;14.23;;;6.30;;
422;SDS011;198;48.752;9.180;2023-04-06T06:19:57;14.23;;;6.13;;
422;SDS011;198;48.752;9.180;2023-04-06T06:22:23;9.83;;;5.13;;
422;SDS011;198;48.752;9.180;2023-04-06T06:24:48;15.13;;;5.70;;
422;SDS011;198;48.752;9.180;2023-04-06T06:27:15;21.20;;;6.83;;
422;SDS011;198;48.752;9.180;2023-04-06T06:29:41;11.27;;;5.90;;
422;SDS011;198;48.752;9.180;2023-04-06T06:32:06;17.83;;;6.33;;
422;SDS011;198;48.752;9.180;2023-04-06T06:34:34;27.33;;;7.53;;
422;SDS011;198;48.752;9.180;2023-04-06T06:37:00;15.03;;;6.93;;
422;SDS011;198;48.752;9.180;2023-04-06T06:39:26;13.83;;;6.10;;
422;SDS011;198;48.752;9.180;2023-04-06T06:41:52;16.00;;;5.90;;
422;SDS011;198;48.752;9.180;2023-04-06T06:44:19;12.70;;;6.63;;
422;SDS011;198;48.752;9.180;2023-04-06T06:46:46;19.10;;;7.10;;
422;SDS011;198;48.752;9.180;2023-04-06T06:49:12;15.80;;;6.53;;
422;SDS011;198;48.752;9.180;2023-04-06T06:51:37;17.93;;;7.10;;
422;SDS011;198;48.752;9.180;2023-04-06T06:54:03;16.30;;;7.20;;
422;SDS011;198;48.752;9.180;2023-04-06T06:56:29;21.90;;;7.83;;
422;SDS011;198;48.752;9.180;2023-04-06T06:58:54;20.57;;;6.50;;
422;SDS011;198;48.752;9.180;2023-04-06T07:01:20;20.03;;;7.10;;
422;SDS011;198;48.752;9.180;2023-04-06T07:03:45;17.73;;;7.23;;
422;SDS011;198;48.752;9.180;2023-04-06T07:06:11;30.93;;;7.63;;
422;SDS011;198;48.752;9.180;2023-04-06T07:08:36;14.53;;;7.33;;
422;SDS011;198;48.752;9.180;2023-04-06T07:11:02;18.20;;;6.93;;
422;SDS011;198;48.752;9.180;2023-04-06T07:13:27;22.47;;;7.03;;
422;SDS011;198;48.752;9.180;2023-04-06T07:15:53;20.00;;;6.70;;
422;SDS011;198;48.752;9.180;2023-04-06T07:18:19;18.70;;;6.50;;
422;SDS011;198;48.752;9.180;2023-04-06T07:20:45;27.10;;;7.67;;
422;SDS011;198;48.752;9.180;2023-04-06T07:23:11;16.57;;;7.77;;
422;SDS011;198;48.752;9.180;2023-04-06T07:25:36;16.33;;;8.13;;
422;SDS011;198;48.752;9.180;2023-04-06T07:28:02;17.23;;;7.80;;
422;SDS011;198;48.752;9.180;2023-04-06T07:30:28;18.10;;;7.67;;
422;SDS011;198;48.752;9.180;2023-04-06T07:32:54;13.00;;;6.87;;
422;SDS011;198;48.752;9.180;2023-04-06T07:35:24;38.63;;;8.60;;
422;SDS011;198;48.752;9.180;2023-04-06T07:37:51;15.83;;;8.27;;
422;SDS011;198;48.752;9.180;2023-04-06T07:40:17;20.50;;;7.70;;
422;SDS011;198;48.752;9.180;2023-04-06T07:42:44;15.07;;;7.60;;
422;SDS011;198;48.752;9.180;2023-04-06T07:45:10;13.83;;;7.20;;
422;SDS011;198;48.752;9.180;2023-04-06T07:47:35;13.33;;;7.37;;
422;SDS011;198;48.752;9.180;2023-04-06T07:50:01;20.67;;;7.40;;
422;SDS011;198;48.752;9.180;2023-04-06T07:52:27;16.73;;;7.13;;
422;SDS011;198;48.752;9.180;2023-04-06T07:54:52;23.30;;;8.27;;
422;SDS011;198;48.752;9.180;2023-04-06T07:57:18;25.10;;;8.13;;
422;SDS011;198;48.752;9.180;2023-04-06T07:59:43;23.83;;;8.97;;
422;SDS011;198;48.752;9.180;2023-04-06T08:02:09;19.90;;;8.83;;
422;SDS011;198;48.752;9.180;2023-04-06T08:04:35;25.43;;;8.80;;
422;SDS011;198;48.752;9.180;2023-04-06T08:07:01;15.27;;;6.70;;
422;SDS011;198;48.752;9.180;2023-04-06T08:09:26;26.67;;;7.77;;
422;SDS011;198;48.752;9.180;2023-04-06T08:11:52;25.20;;;7.93;;
422;SDS011;198;48.752;9.180;2023-04-06T08:14:18;16.50;;;6.93;;
422;SDS011;198;48.752;9.180;2023-04-06T08:16:43;19.73;;;8.33;;
422;SDS011;198;48.752;9.180;2023-04-06T08:19:09;16.43;;;7.43;;
422;SDS011;198;48.752;9.180;2023-04-06T08:21:37;21.90;;;8.67;;
422;SDS011;198;48.752;9.180;2023-04-06T08:24:04;19.97;;;8.00;;
422;SDS011;198;48.752;9.180;2023-04-06T08:26:30;16.73;;;8.37;;
422;SDS011;198;48.752;9.180;2023-04-06T08:28:56;15.50;;;7.80;;
422;SDS011;198;48.752;9.180;2023-04-06T08:31:21;21.13;;;8.03;;
422;SDS011;198;48.752;9.180;2023-04-06T08:33:47;18.30;;;7.27;;
422;SDS011;198;48.752;9.180;2023-04-06T08:36:13;14.83;;;7.27;;
422;SDS011;198;48.752;9.180;2023-04-06T08:38:40;15.50;;;7.20;;
422;SDS011;198;48.752;9.180;2023-04-06T08:41:07;15.63;;;7.50;;
422;SDS011;198;48.752;9.180;2023-04-06T08:46:24;23.13;;;7.20;;
422;SDS011;198;48.752;9.180;2023-04-06T08:48:54;27.70;;;8.43;;
422;SDS011;198;48.752;9.180;2023-04-06T08:51:22;19.40;;;7.60;;
422;SDS011;198;48.752;9.180;2023-04-06T08:53:49;26.67;;;7.77;;
422;SDS011;198;48.752;9.180;2023-04-06T08:56:15;14.70;;;7.37;;
422;SDS011;198;48.752;9.180;2023-04-06T08:58:41;16.43;;;7.87;;
422;SDS011;198;48.752;9.180;2023-04-06T09:01:07;15.30;;;7.00;;
422;SDS011;198;48.752;9.180;2023-04-06T09:03:35;14.17;;;5.90;;
422;SDS011;198;48.752;9.180;2023-04-06T09:06:03;13.77;;;6.00;;
422;SDS011;198;48.752;9.180;2023-04-06T09:08:29;13.33;;;6.50;;
422;SDS011;198;48.752;9.180;2023-04-06T09:10:55;16.47;;;8.30;;
422;SDS011;198;48.752;9.180;2023-04-06T09:13:20;14.00;;;6.60;;
422;SDS011;198;48.752;9.180;2023-04-06T09:15:46;15.23;;;5.97;;
422;SDS011;198;48.752;9.180;2023-04-06T09:18:11;12.50;;;5.47;;
422;SDS011;198;48.752;9.180;2023-04-06T09:20:37;11.57;;;5.07;;
422;SDS011;198;48.752;9.180;2023-04-06T09:23:02;9.10;;;5.30;;
422;SDS011;198;48.752;9.180;2023-04-06T09:25:28;12.17;;;5.87;;
422;SDS011;198;48.752;9.180;2023-04-06T09:27:58;10.57;;;5.53;;
422;SDS011;198;48.752;9.180;2023-04-06T09:30:28;11.43;;;6.00;;
422;SDS011;198;48.752;9.180;2023-04-06T09:32:55;7.80;;;4.77;;
422;SDS011;198;48.752;9.180;2023-04-06T09:35:21;11.90;;;5.03;;
422;SDS011;198;48.752;9.180;2023-04-06T09:37:51;8.70;;;5.27;;
422;SDS011;198;48.752;9.180;2023-04-06T09:40:17;11.60;;;6.10;;
422;SDS011;198;48.752;9.180;2023-04-06T09:42:47;11.23;;;5.93;;
422;SDS011;198;48.752;9.180;2023-04-06T09:45:17;20.00;;;7.07;;
422;SDS011;198;48.752;9.180;2023-04-06T09:47:43;11.17;;;6.00;;
422;SDS011;198;48.752;9.180;2023-04-06T09:50:10;10.27;;;5.80;;
422;SDS011;198;48.752;9.180;2023-04-06T09:52:39;11.77;;;7.20;;
422;SDS011;198;48.752;9.180;2023-04-06T09:55:12;9.10;;;6.40;;
422;SDS011;198;48.752;9.180;2023-04-06T09:57:52;9.57;;;6.17;;
422;SDS011;198;48.752;9.180;2023-04-06T10:00:22;10.40;;;5.93;;
422;SDS011;198;48.752;9.180;2023-04-06T10:02:50;8.47;;;5.27;;
422;SDS011;198;48.752;9.180;2023-04-06T10:08:16;14.47;;;5.93;;
422;SDS011;198;48.752;9.180;2023-04-06T10:10:44;8.00;;;5.80;;
422;SDS011;198;48.752;9.180;2023-04-06T10:13:11;15.33;;;6.80;;
422;SDS011;198;48.752;9.180;2023-04-06T10:15:37;10.67;;;5.13;;
422;SDS011;198;48.752;9.180;2023-04-06T10:18:04;9.93;;;5.50;;
422;SDS011;198;48.752;9.180;2023-04-06T10:20:41;8.60;;;5.73;;
422;SDS011;198;48.752;9.180;2023-04-06T10:23:29;9.10;;;4.90;;
422;SDS011;198;48.752;9.180;2023-04-06T10:25:59;7.07;;;4.60;;
422;SDS011;198;48.752;9.180;2023-04-06T10:28:29;8.60;;;5.40;;
422;SDS011;198;48.752;9.180;2023-04-06T10:30:57;9.23;;;5.23;;
422;SDS011;198;48.752;9.180;2023-04-06T10:33:24;7.03;;;5.73;;
422;SDS011;198;48.752;9.180;2023-04-06T10:35:50;8.50;;;6.07;;
422;SDS011;198;48.752;9.180;2023-04-06T10:38:16;10.03;;;6.40;;
422;SDS011;198;48.752;9.180;2023-04-06T10:40:46;9.00;;;5.33;;
422;SDS011;198;48.752;9.180;2023-04-06T10:43:20;10.57;;;5.53;;
422;SDS011;198;48.752;9.180;2023-04-06T10:45:55;8.10;;;5.20;;
422;SDS011;198;48.752;9.180;2023-04-06T10:48:23;9.73;;;5.63;;
422;SDS011;198;48.752;9.180;2023-04-06T10:50:50;9.87;;;4.03;;
422;SDS011;198;48.752;9.180;2023-04-06T10:53:23;7.50;;;4.73;;
422;SDS011;198;48.752;9.180;2023-04-06T10:55:51;11.87;;;5.90;;
422;SDS011;198;48.752;9.180;2023-04-06T10:58:18;14.30;;;5.33;;
422;SDS011;198;48.752;9.180;2023-04-06T11:00:47;7.80;;;4.90;;
422;SDS011;198;48.752;9.180;2023-04-06T11:03:14;8.83;;;5.50;;
422;SDS011;198;48.752;9.180;2023-04-06T11:05:46;8.13;;;5.20;;
422;SDS011;198;48.752;9.180;2023-04-06T11:08:22;11.53;;;6.40;;
422;SDS011;198;48.752;9.180;2023-04-06T11:10:48;12.67;;;5.70;;
422;SDS011;198;48.752;9.180;2023-04-06T11:13:14;5.77;;;4.73;;
422;SDS011;198;48.752;9.180;2023-04-06T11:15:39;12.00;;;5.47;;
422;SDS011;198;48.752;9.180;2023-04-06T11:18:05;6.80;;;4.80;;
422;SDS011;198;48.752;9.180;2023-04-06T11:20:31;10.63;;;5.23;;
422;SDS011;198;48.752;9.180;2023-04-06T11:22:56;7.37;;;4.97;;
422;SDS011;198;48.752;9.180;2023-04-06T11:25:24;9.00;;;5.50;;
422;SDS011;198;48.752;9.180;2023-04-06T11:27:51;7.10;;;5.43;;
422;SDS011;198;48.752;9.180;2023-04-06T11:30:16;9.10;;;5.40;;
422;SDS011;198;48.752;9.180;2023-04-06T11:32:43;8.73;;;5.07;;
422;SDS011;198;48.752;9.180;2023-04-06T11:35:19;6.40;;;5.40;;
422;SDS011;198;48.752;9.180;2023-04-06T11:37:51;6.70;;;5.20;;
422;SDS011;198;48.752;9.180;2023-04-06T11:40:20;8.87;;;5.17;;
422;SDS011;198;48.752;9.180;2023-04-06T11:42:53;8.20;;;5.40;;
422;SDS011;198;48.752;9.180;2023-04-06T11:45:20;7.80;;;4.90;;
422;SDS011;198;48.752;9.180;2023-04-06T11:47:54;6.50;;;4.03;;
422;SDS011;198;48.752;9.180;2023-04-06T11:50:22;10.00;;;5.67;;
422;SDS011;198;48.752;9.180;2023-04-06T11:52:47;6.27;;;4.57;;
422;SDS011;198;48.752;9.180;2023-04-06T11:55:24;6.70;;;4.43;;
422;SDS011;198;48.752;9.180;2023-04-06T11:57:50;10.97;;;5.40;;
422;SDS011;198;48.752;9.180;2023-04-06T12:00:16;6.77;;;4.57;;
422;SDS011;198;48.752;9.180;2023-04-06T12:02:45;7.73;;;4.37;;
422;SDS011;198;48.752;9.180;2023-04-06T12:05:12;7.33;;;4.97;;
422;SDS011;198;48.752;9.180;2023-04-06T12:07:38;10.73;;;5.27;;
422;SDS011;198;48.752;9.180;2023-04-06T12:10:03;7.77;;;5.33;;
422;SDS011;198;48.752;9.180;2023-04-06T12:12:30;7.27;;;4.73;;
422;SDS011;198;48.752;9.180;2023-04-06T12:14:56;9.40;;;5.60;;
422;SDS011;198;48.752;9.180;2023-04-06T12:17:22;11.13;;;6.47;;
422;SDS011;198;48.752;9.180;2023-04-06T12:19:48;9.33;;;5.93;;
422;SDS011;198;48.752;9.180;2023-04-06T12:22:13;10.80;;;5.73;;
422;SDS011;198;48.752;9.180;2023-04-06T12:24:39;9.50;;;4.17;;
422;SDS011;198;48.752;9.180;2023-04-06T12:27:05;5.93;;;4.47;;
422;SDS011;198;48.752;9.180;2023-04-06T12:29:30;10.67;;;5.50;;
422;SDS011;198;48.752;9.180;2023-04-06T12:31:56;5.77;;;4.33;;
422;SDS011;198;48.752;9.180;2023-04-06T12:34:21;11.03;;;5.93;;
422;SDS011;198;48.752;9.180;2023-04-06T12:36:48;7.90;;;5.30;;
422;SDS011;198;48.752;9.180;2023-04-06T12:39:13;8.17;;;5.60;;
422;SDS011;198;48.752;9.180;2023-04-06T12:41:39;10.80;;;5.27;;
422;SDS011;198;48.752;9.180;2023-04-06T12:44:07;7.07;;;4.30;;
422;SDS011;198;48.752;9.180;2023-04-06T12:46:33;8.13;;;5.30;;
422;SDS011;198;48.752;9.180;2023-04-06T12:48:58;8.93;;;5.37;;
422;SDS011;198;48.752;9.180;2023-04-06T12:51:24;12.87;;;4.70;;
422;SDS011;198;48.752;9.180;2023-04-06T12:53:52;7.53;;;5.27;;
422;SDS011;198;48.752;9.180;2023-04-06T12:56:18;7.63;;;4.90;;
422;SDS011;198;48.752;9.180;2023-04-06T12:58:45;7.40;;;5.47;;
422;SDS011;198;48.752;9.180;2023-04-06T13:01:11;9.63;;;4.30;;
422;SDS011;198;48.752;9.180;2023-04-06T13:03:38;8.10;;;4.67;;
422;SDS011;198;48.752;9.180;2023-04-06T13:06:04;9.73;;;5.93;;
422;SDS011;198;48.752;9.180;2023-04-06T13:08:30;9.10;;;4.93;;
422;SDS011;198;48.752;9.180;2023-04-06T13:10:56;6.40;;;4.27;;
422;SDS011;198;48.752;9.180;2023-04-06T13:13:25;10.33;;;4.70;;
422;SDS011;198;48.752;9.180;2023-04-06T13:15:59;9.13;;;5.53;;
422;SDS011;198;48.752;9.180;2023-04-06T13:18:27;7.00;;;4.83;;
422;SDS011;198;48.752;9.180;2023-04-06T13:20:53;10.33;;;5.30;;
422;SDS011;198;48.752;9.180;2023-04-06T13:23:20;9.30;;;4.57;;
422;SDS011;198;48.752;9.180;2023-04-06T13:25:45;7.83;;;4.47;;
422;SDS011;198;48.752;9.180;2023-04-06T13:28:11;7.50;;;4.27;;
422;SDS011;198;48.752;9.180;2023-04-06T13:30:36;7.80;;;4.67;;
422;SDS011;198;48.752;9.180;2023-04-06T13:33:02;7.67;;;4.43;;
422;SDS011;198;48.752;9.180;2023-04-06T13:35:27;7.70;;;4.73;;
422;SDS011;198;48.752;9.180;2023-04-06T13:37:53;8.30;;;5.37;;
422;SDS011;198;48.752;9.180;2023-04-06T13:40:19;12.57;;;5.20;;
422;SDS011;198;48.752;9.180;2023-04-06T13:42:45;8.40;;;4.63;;
422;SDS011;198;48.752;9.180;2023-04-06T13:45:12;10.13;;;5.20;;
422;SDS011;198;48.752;9.180;2023-04-06T13:47:37;7.77;;;5.00;;
422;SDS011;198;48.752;9.180;2023-04-06T13:50:03;6.47;;;3.93;;
422;SDS011;198;48.752;9.180;2023-04-06T13:52:29;11.60;;;4.80;;
422;SDS011;198;48.752;9.180;2023-04-06T13:54:54;8.37;;;4.70;;
422;SDS011;198;48.752;9.180;2023-04-06T13:57:20;8.50;;;4.80;;
422;SDS011;198;48.752;9.180;2023-04-06T13:59:46;10.40;;;4.80;;
422;SDS011;198;48.752;9.180;2023-04-06T14:02:11;8.00;;;4.77;;
422;SDS011;198;48.752;9.180;2023-04-06T14:04:37;9.97;;;5.10;;
422;SDS011;198;48.752;9.180;2023-04-06T14:07:03;8.80;;;4.40;;
422;SDS011;198;48.752;9.180;2023-04-06T14:09:29;9.93;;;5.70;;
422;SDS011;198;48.752;9.180;2023-04-06T14:11:55;10.73;;;5.47;;
422;SDS011;198;48.752;9.180;2023-04-06T14:14:22;9.87;;;5.77;;
422;SDS011;198;48.752;9.180;2023-04-06T14:16:47;7.67;;;4.87;;
422;SDS011;198;48.752;9.180;2023-04-06T14:19:14;11.87;;;5.20;;
422;SDS011;198;48.752;9.180;2023-04-06T14:21:44;11.97;;;5.17;;
422;SDS011;198;48.752;9.180;2023-04-06T14:24:10;7.63;;;4.67;;
422;SDS011;198;48.752;9.180;2023-04-06T14:26:37;10.30;;;5.03;;
422;SDS011;198;48.752;9.180;2023-04-06T14:29:03;10.30;;;5.40;;
422;SDS011;198;48.752;9.180;2023-04-06T14:31:29;11.20;;;5.73;;
422;SDS011;198;48.752;9.180;2023-04-06T14:33:55;13.40;;;6.20;;
422;SDS011;198;48.752;9.180;2023-04-06T14:36:21;11.87;;;4.90;;
422;SDS011;198;48.752;9.180;2023-04-06T14:38:46;17.10;;;6.23;;
422;SDS011;198;48.752;9.180;2023-04-06T14:41:19;7.60;;;4.67;;
422;SDS011;198;48.752;9.180;2023-04-06T14:43:46;9.63;;;5.10;;
422;SDS011;198;48.752;9.180;2023-04-06T14:46:12;11.33;;;5.77;;
422;SDS011;198;48.752;9.180;2023-04-06T14:48:38;15.20;;;5.13;;
422;SDS011;198;48.752;9.180;2023-04-06T14:51:04;8.93;;;5.10;;
422;SDS011;198;48.752;9.180;2023-04-06T14:53:30;8.60;;;4.57;;
422;SDS011;198;48.752;9.180;2023-04-06T14:55:56;10.60;;;5.17;;
422;SDS011;198;48.752;9.180;2023-04-06T14:58:22;11.07;;;5.37;;
422;SDS011;198;48.752;9.180;2023-04-06T15:00:48;14.93;;;5.03;;
422;SDS011;198;48.752;9.180;2023-04-06T15:03:13;11.33;;;5.10;;
422;SDS011;198;48.752;9.180;2023-04-06T15:05:40;9.23;;;4.87;;
422;SDS011;198;48.752;9.180;2023-04-06T15:08:05;11.77;;;5.87;;
422;SDS011;198;48.752;9.180;2023-04-06T15:10:31;7.13;;;4.63;;
422;SDS011;198;48.752;9.180;2023-04-06T15:12:57;8.23;;;4.70;;
422;SDS011;198;48.752;9.180;2023-04-06T15:15:23;9.00;;;6.00;;
422;SDS011;198;48.752;9.180;2023-04-06T15:17:49;11.70;;;5.97;;
422;SDS011;198;48.752;9.180;2023-04-06T15:20:14;10.87;;;4.63;;
422;SDS011;198;48.752;9.180;2023-04-06T15:22:40;13.30;;;5.00;;
422;SDS011;198;48.752;9.180;2023-04-06T15:25:06;7.87;;;4.97;;
422;SDS011;198;48.752;9.180;2023-04-06T15:27:31;10.90;;;3.70;;
422;SDS011;198;48.752;9.180;2023-04-06T15:29:57;10.37;;;4.43;;
422;SDS011;198;48.752;9.180;2023-04-06T15:32:23;10.80;;;5.37;;
422;SDS011;198;48.752;9.180;2023-04-06T15:34:49;9.77;;;5.60;;